createdAt,value
2018-12-06T00:01:31.714Z,54.60
2018-12-06T00:04:00.305Z,54.60
2018-12-06T00:06:28.893Z,54.70
2018-12-06T00:08:57.485Z,54.60
2018-12-06T00:11:26.073Z,54.60
2018-12-06T00:13:54.669Z,54.60
2018-12-06T00:16:23.251Z,54.60
2018-12-06T00:19:03.093Z,54.80
2018-12-06T00:21:31.687Z,54.70
2018-12-06T00:24:00.249Z,54.60
2018-12-06T00:26:28.833Z,54.70
2018-12-06T00:28:57.780Z,54.70
2018-12-06T00:31:26.355Z,54.70
2018-12-06T00:33:54.927Z,54.70
2018-12-06T00:36:23.512Z,54.70
2018-12-06T00:38:52.089Z,54.70
2018-12-06T00:41:20.680Z,54.70
2018-12-06T00:43:49.275Z,54.80
2018-12-06T00:46:17.843Z,54.80
2018-12-06T00:48:46.428Z,54.80
2018-12-06T00:51:15.020Z,54.80
2018-12-06T00:53:43.589Z,54.80
2018-12-06T00:56:12.181Z,54.80
2018-12-06T00:58:40.752Z,54.80
2018-12-06T01:01:09.326Z,54.80
2018-12-06T01:03:37.913Z,54.80
2018-12-06T01:06:06.485Z,54.90
2018-12-06T01:08:35.097Z,54.90
2018-12-06T01:11:03.682Z,55.50
2018-12-06T01:13:32.256Z,54.90
2018-12-06T01:16:00.859Z,54.90
2018-12-06T01:18:29.437Z,55.00
2018-12-06T01:20:58.001Z,54.90
2018-12-06T01:23:26.588Z,54.90
2018-12-06T01:25:55.170Z,55.00
2018-12-06T01:28:23.744Z,55.00
2018-12-06T01:30:52.382Z,55.00
2018-12-06T01:33:20.972Z,55.00
2018-12-06T01:35:49.544Z,55.00
2018-12-06T01:38:18.148Z,55.00
2018-12-06T01:40:46.713Z,55.00
2018-12-06T01:43:15.252Z,55.00
2018-12-06T01:45:43.826Z,55.10
2018-12-06T01:48:12.594Z,55.10
2018-12-06T01:50:41.173Z,55.10
2018-12-06T01:53:09.761Z,55.00
2018-12-06T01:55:38.344Z,55.10
2018-12-06T01:58:06.932Z,55.10
2018-12-06T02:00:35.521Z,55.10
2018-12-06T02:03:04.128Z,55.20
2018-12-06T02:05:32.829Z,55.30
2018-12-06T02:08:01.397Z,55.20
2018-12-06T02:10:29.990Z,55.10
2018-12-06T02:12:58.573Z,55.20
2018-12-06T02:15:27.144Z,55.20
2018-12-06T02:17:56.057Z,55.20
2018-12-06T02:20:24.647Z,55.20
2018-12-06T02:22:53.244Z,55.20
2018-12-06T02:25:21.809Z,55.20
2018-12-06T02:27:50.379Z,55.20
2018-12-06T02:30:18.993Z,55.30
2018-12-06T02:32:47.557Z,55.30
2018-12-06T02:35:16.140Z,55.30
2018-12-06T02:37:44.744Z,55.20
2018-12-06T02:40:13.575Z,55.30
2018-12-06T02:42:42.156Z,55.20
2018-12-06T02:45:12.737Z,55.90
2018-12-06T02:47:41.357Z,55.40
2018-12-06T02:50:09.937Z,55.70
2018-12-06T02:52:38.529Z,55.30
2018-12-06T02:55:07.153Z,55.30
2018-12-06T02:57:37.716Z,56.10
2018-12-06T03:00:06.585Z,55.30
2018-12-06T03:02:35.146Z,55.40
2018-12-06T03:05:03.898Z,55.40
2018-12-06T03:07:32.478Z,55.40
2018-12-06T03:10:01.010Z,55.40
2018-12-06T03:12:29.661Z,55.40
2018-12-06T03:14:58.572Z,55.40
2018-12-06T03:17:27.143Z,56.00
2018-12-06T03:19:55.737Z,55.30
2018-12-06T03:22:24.309Z,56.00
2018-12-06T03:24:52.898Z,55.40
2018-12-06T03:27:21.460Z,55.40
2018-12-06T03:29:50.037Z,55.40
2018-12-06T03:32:18.634Z,55.50
2018-12-06T03:34:47.221Z,55.50
2018-12-06T03:37:15.809Z,55.50
2018-12-06T03:39:44.378Z,55.50
2018-12-06T03:42:13.041Z,55.50
2018-12-06T03:44:41.650Z,55.50
2018-12-06T03:47:10.370Z,55.40
2018-12-06T03:49:38.937Z,55.50
2018-12-06T03:52:07.677Z,55.50
2018-12-06T03:54:36.249Z,55.50
2018-12-06T03:57:04.858Z,55.50
2018-12-06T03:59:33.421Z,55.50
2018-12-06T04:02:02.008Z,55.50
2018-12-06T04:04:30.612Z,55.50
2018-12-06T04:06:59.190Z,55.50
2018-12-06T04:09:27.764Z,55.60
2018-12-06T04:11:56.386Z,55.60
2018-12-06T04:14:24.977Z,55.60
2018-12-06T04:16:53.574Z,55.50
2018-12-06T04:19:22.294Z,55.60
2018-12-06T04:21:50.861Z,55.60
2018-12-06T04:24:19.440Z,55.60
2018-12-06T04:26:48.029Z,55.60
2018-12-06T04:29:16.918Z,55.70
2018-12-06T04:31:45.516Z,55.70
2018-12-06T04:34:14.101Z,55.70
2018-12-06T04:36:42.684Z,55.70
2018-12-06T04:39:11.287Z,55.70
2018-12-06T04:41:39.868Z,55.70
2018-12-06T04:44:08.433Z,55.70
2018-12-06T04:46:37.020Z,55.70
2018-12-06T04:49:05.612Z,55.70
2018-12-06T04:51:34.348Z,55.70
2018-12-06T04:54:02.971Z,55.70
2018-12-06T04:56:31.596Z,55.70
2018-12-06T04:59:00.215Z,55.60
2018-12-06T05:01:28.835Z,55.70
2018-12-06T05:03:57.855Z,55.60
2018-12-06T05:06:26.499Z,55.60
2018-12-06T05:08:55.118Z,55.60
2018-12-06T05:11:23.764Z,55.60
2018-12-06T05:13:52.404Z,55.70
2018-12-06T05:16:21.030Z,55.60
2018-12-06T05:18:49.660Z,55.60
2018-12-06T05:21:18.291Z,55.60
2018-12-06T05:23:46.943Z,55.70
2018-12-06T05:26:15.554Z,55.70
2018-12-06T05:28:44.192Z,55.60
2018-12-06T05:31:12.807Z,55.60
2018-12-06T05:33:41.403Z,55.60
2018-12-06T05:36:10.047Z,55.60
2018-12-06T05:38:38.762Z,55.60
2018-12-06T05:41:07.387Z,55.60
2018-12-06T05:43:36.007Z,55.60
2018-12-06T05:46:04.717Z,55.60
2018-12-06T05:48:33.335Z,55.60
2018-12-06T05:51:01.951Z,55.60
2018-12-06T05:53:30.586Z,55.60
2018-12-06T05:55:59.194Z,55.60
2018-12-06T05:58:27.774Z,55.60
2018-12-06T06:00:56.522Z,55.60
2018-12-06T06:03:25.126Z,55.70
2018-12-06T06:05:53.754Z,55.60
2018-12-06T06:08:22.495Z,55.60
2018-12-06T06:10:51.123Z,55.50
2018-12-06T06:13:19.744Z,55.60
2018-12-06T06:15:48.402Z,55.60
2018-12-06T06:18:17.031Z,55.50
2018-12-06T06:20:45.670Z,55.50
2018-12-06T06:23:14.300Z,55.60
2018-12-06T06:25:42.970Z,55.60
2018-12-06T06:28:11.683Z,55.60
2018-12-06T06:30:40.314Z,55.60
2018-12-06T06:33:08.917Z,55.60
2018-12-06T06:35:37.550Z,55.50
2018-12-06T06:38:06.195Z,55.50
2018-12-06T06:40:34.848Z,55.50
2018-12-06T06:43:03.458Z,55.60
2018-12-06T06:45:32.104Z,55.60
2018-12-06T06:48:00.759Z,55.60
2018-12-06T06:50:29.386Z,55.60
2018-12-06T06:52:57.987Z,55.60
2018-12-06T06:55:26.610Z,55.60
2018-12-06T06:57:55.231Z,55.60
2018-12-06T07:00:23.864Z,55.60
2018-12-06T07:02:52.503Z,55.60
2018-12-06T07:05:21.104Z,55.70
2018-12-06T07:07:49.717Z,55.70
2018-12-06T07:10:18.384Z,55.60
2018-12-06T07:12:47.026Z,55.60
2018-12-06T07:15:15.699Z,55.70
2018-12-06T07:17:44.726Z,55.80
2018-12-06T07:20:13.363Z,55.70
2018-12-06T07:22:41.996Z,55.80
2018-12-06T07:25:10.626Z,56.30
2018-12-06T07:27:39.263Z,55.70
2018-12-06T07:30:12.332Z,55.70
2018-12-06T07:32:38.805Z,55.80
2018-12-06T07:35:07.444Z,55.80
2018-12-06T07:37:36.055Z,55.90
2018-12-06T07:40:04.819Z,55.80
2018-12-06T07:42:33.551Z,55.90
2018-12-06T07:45:02.183Z,56.00
2018-12-06T07:47:30.819Z,56.00
2018-12-06T07:49:59.428Z,56.00
2018-12-06T07:52:28.067Z,56.00
2018-12-06T07:54:56.692Z,56.10
2018-12-06T07:57:25.310Z,56.10
2018-12-06T07:59:53.981Z,56.10
2018-12-06T08:02:22.598Z,56.20
2018-12-06T08:04:51.237Z,56.20
2018-12-06T08:07:19.906Z,56.20
2018-12-06T08:09:49.351Z,56.30
2018-12-06T08:12:17.969Z,56.30
2018-12-06T08:14:46.626Z,56.40
2018-12-06T08:17:15.240Z,56.40
2018-12-06T08:19:43.895Z,57.10
2018-12-06T08:22:12.578Z,56.40
2018-12-06T08:24:41.237Z,56.40
2018-12-06T08:27:09.866Z,56.50
2018-12-06T08:29:38.495Z,56.50
2018-12-06T08:32:07.394Z,56.50
2018-12-06T08:34:36.027Z,56.50
2018-12-06T08:37:04.661Z,56.60
2018-12-06T08:39:33.294Z,56.60
2018-12-06T08:42:01.959Z,56.60
2018-12-06T08:44:30.602Z,56.70
2018-12-06T08:46:59.227Z,56.70
2018-12-06T08:49:27.862Z,56.80
2018-12-06T08:51:56.522Z,57.30
2018-12-06T08:54:25.139Z,56.80
2018-12-06T08:56:53.770Z,56.90
2018-12-06T08:59:22.399Z,56.80
2018-12-06T09:01:51.017Z,57.00
2018-12-06T09:04:19.672Z,56.90
2018-12-06T09:06:48.300Z,56.90
2018-12-06T09:09:16.971Z,57.00
2018-12-06T09:11:45.642Z,57.00
2018-12-06T09:14:14.262Z,57.00
2018-12-06T09:16:42.986Z,57.10
2018-12-06T09:19:11.621Z,57.10
2018-12-06T09:21:40.255Z,57.10
2018-12-06T09:24:08.901Z,57.60
2018-12-06T09:26:37.524Z,57.20
2018-12-06T09:29:06.147Z,57.20
2018-12-06T09:31:34.893Z,57.30
2018-12-06T09:34:07.826Z,57.30
2018-12-06T09:36:37.819Z,57.30
2018-12-06T09:39:09.620Z,57.40
2018-12-06T09:41:38.262Z,57.40
2018-12-06T09:44:06.904Z,57.40
2018-12-06T09:46:35.543Z,57.50
2018-12-06T09:49:05.083Z,57.50
2018-12-06T09:51:33.743Z,57.50
2018-12-06T09:54:02.399Z,57.60
2018-12-06T09:56:31.335Z,57.60
2018-12-06T09:58:59.958Z,57.70
2018-12-06T10:01:28.665Z,57.80
2018-12-06T10:03:57.432Z,57.80
2018-12-06T10:06:26.086Z,57.80
2018-12-06T10:08:54.802Z,57.80
2018-12-06T10:11:23.410Z,57.90
2018-12-06T10:13:52.050Z,57.90
2018-12-06T10:16:20.702Z,58.00
2018-12-06T10:18:49.273Z,57.90
2018-12-06T10:21:17.922Z,57.90
2018-12-06T10:23:46.546Z,58.50
2018-12-06T10:26:15.241Z,58.00
2018-12-06T10:28:45.721Z,58.00
2018-12-06T10:31:14.347Z,58.00
2018-12-06T10:33:42.970Z,58.10
2018-12-06T10:36:11.587Z,58.10
2018-12-06T10:38:40.223Z,58.10
2018-12-06T10:41:08.864Z,58.10
2018-12-06T10:43:37.498Z,58.10
2018-12-06T10:46:06.142Z,58.20
2018-12-06T10:48:34.794Z,58.20
2018-12-06T10:51:14.592Z,58.20
2018-12-06T10:53:43.216Z,58.20
2018-12-06T10:56:11.825Z,58.80
2018-12-06T10:58:40.459Z,58.20
2018-12-06T11:01:09.323Z,58.30
2018-12-06T11:03:43.275Z,58.30
2018-12-06T11:06:11.923Z,58.30
2018-12-06T11:08:40.534Z,58.30
2018-12-06T11:11:09.183Z,58.30
2018-12-06T11:13:37.796Z,58.40
2018-12-06T11:16:06.415Z,58.40
2018-12-06T11:18:35.057Z,58.40
2018-12-06T11:21:03.784Z,58.40
2018-12-06T11:23:32.473Z,58.70
2018-12-06T11:26:01.439Z,58.50
2018-12-06T11:28:30.149Z,58.50
2018-12-06T11:30:58.799Z,58.50
2018-12-06T11:33:27.399Z,58.50
2018-12-06T11:35:56.394Z,58.60
2018-12-06T11:38:25.005Z,58.60
2018-12-06T11:40:53.627Z,58.60
2018-12-06T11:43:22.261Z,58.50
2018-12-06T11:45:50.895Z,58.70
2018-12-06T11:48:26.710Z,58.70
2018-12-06T11:50:50.208Z,58.60
2018-12-06T11:53:19.363Z,58.60
2018-12-06T11:55:48.110Z,58.60
2018-12-06T11:58:16.706Z,58.70
2018-12-06T12:00:52.528Z,58.80
2018-12-06T12:03:34.438Z,58.70
2018-12-06T12:06:03.089Z,58.80
2018-12-06T12:08:31.699Z,58.80
2018-12-06T12:11:00.342Z,59.40
2018-12-06T12:13:28.970Z,58.90
2018-12-06T12:15:57.597Z,58.80
2018-12-06T12:18:27.171Z,58.90
2018-12-06T12:20:55.774Z,58.80
2018-12-06T12:23:24.408Z,58.90
2018-12-06T12:25:53.043Z,58.90
2018-12-06T12:28:21.675Z,58.90
2018-12-06T12:30:50.345Z,58.80
2018-12-06T12:33:18.980Z,58.90
2018-12-06T12:35:47.595Z,58.90
2018-12-06T12:38:16.215Z,58.90
2018-12-06T12:40:44.879Z,58.90
2018-12-06T12:43:13.499Z,58.90
2018-12-06T12:45:42.587Z,58.90
2018-12-06T12:48:11.251Z,59.00
2018-12-06T12:50:39.902Z,58.90
2018-12-06T12:53:08.522Z,58.90
2018-12-06T12:55:37.211Z,59.00
2018-12-06T12:58:05.814Z,59.00
2018-12-06T13:00:34.432Z,59.00
2018-12-06T13:03:03.087Z,59.00
2018-12-06T13:05:31.707Z,59.00
2018-12-06T13:08:00.327Z,59.00
2018-12-06T13:10:29.090Z,59.00
2018-12-06T13:12:57.707Z,59.00
2018-12-06T13:15:26.339Z,59.00
2018-12-06T13:17:54.966Z,59.00
2018-12-06T13:20:23.612Z,59.00
2018-12-06T13:22:52.298Z,59.10
2018-12-06T13:25:20.940Z,59.00
2018-12-06T13:27:49.568Z,59.10
2018-12-06T13:30:18.342Z,59.10
2018-12-06T13:32:47.007Z,59.10
2018-12-06T13:35:15.654Z,59.10
2018-12-06T13:37:44.263Z,59.10
2018-12-06T13:40:12.943Z,59.10
2018-12-06T13:42:41.571Z,59.10
2018-12-06T13:45:10.482Z,59.10
2018-12-06T13:47:39.142Z,59.10
2018-12-06T13:50:08.147Z,59.10
2018-12-06T13:52:36.774Z,59.10
2018-12-06T13:55:06.027Z,59.10
2018-12-06T13:57:34.780Z,59.10
2018-12-06T14:00:03.907Z,59.10
2018-12-06T14:02:32.614Z,59.10
2018-12-06T14:05:01.272Z,59.10
2018-12-06T14:07:29.876Z,59.10
2018-12-06T14:09:58.496Z,59.10
2018-12-06T14:12:27.150Z,59.10
2018-12-06T14:14:55.771Z,59.10
2018-12-06T14:17:24.454Z,59.10
2018-12-06T14:19:53.082Z,59.10
2018-12-06T14:22:21.686Z,59.10
2018-12-06T14:24:50.331Z,59.10
2018-12-06T14:27:18.948Z,59.10
2018-12-06T14:29:47.641Z,59.10
2018-12-06T14:32:16.251Z,59.10
2018-12-06T14:34:45.163Z,59.10
2018-12-06T14:37:13.843Z,59.10
2018-12-06T14:39:42.488Z,59.10
2018-12-06T14:42:11.095Z,59.10
2018-12-06T14:44:39.742Z,59.10
2018-12-06T14:47:08.370Z,59.00
2018-12-06T14:49:36.979Z,59.00
2018-12-06T14:52:05.619Z,59.10
2018-12-06T14:54:34.240Z,59.80
2018-12-06T14:57:02.898Z,59.00
2018-12-06T14:59:31.506Z,59.20
2018-12-06T15:02:00.119Z,59.00
2018-12-06T15:04:29.792Z,59.10
2018-12-06T15:06:58.471Z,59.00
2018-12-06T15:09:27.103Z,59.00
2018-12-06T15:11:55.751Z,59.10
2018-12-06T15:14:24.383Z,59.10
2018-12-06T15:16:53.639Z,59.10
2018-12-06T15:19:22.377Z,59.10
2018-12-06T15:21:50.990Z,59.10
2018-12-06T15:24:19.679Z,59.10
2018-12-06T15:26:48.308Z,59.10
2018-12-06T15:29:16.885Z,59.10
2018-12-06T15:31:45.531Z,59.10
2018-12-06T15:34:14.159Z,59.10
2018-12-06T15:36:42.812Z,59.10
2018-12-06T15:39:11.456Z,59.20
2018-12-06T15:41:40.158Z,59.20
2018-12-06T15:44:08.809Z,59.30
2018-12-06T15:46:37.387Z,59.20
2018-12-06T15:49:06.011Z,59.20
2018-12-06T15:51:35.045Z,59.20
2018-12-06T15:54:03.678Z,59.20
2018-12-06T15:56:32.283Z,59.30
2018-12-06T15:59:00.895Z,59.20
2018-12-06T16:01:29.621Z,59.30
2018-12-06T16:03:58.251Z,59.30
2018-12-06T16:07:27.556Z,59.30
2018-12-06T16:09:56.181Z,59.70
2018-12-06T16:12:24.815Z,59.60
2018-12-06T16:14:53.466Z,59.50
2018-12-06T16:17:22.095Z,59.50
2018-12-06T16:19:50.667Z,59.50
2018-12-06T16:22:19.350Z,59.40
2018-12-06T16:24:47.980Z,59.50
2018-12-06T16:27:16.591Z,59.50
2018-12-06T16:29:51.421Z,59.40
2018-12-06T16:32:15.883Z,59.40
2018-12-06T16:34:44.503Z,59.40
2018-12-06T16:37:13.152Z,59.50
2018-12-06T16:39:41.783Z,59.50
2018-12-06T16:42:10.397Z,60.00
2018-12-06T16:44:39.039Z,59.50
2018-12-06T16:47:07.675Z,59.50
2018-12-06T16:49:36.476Z,59.50
2018-12-06T16:52:05.151Z,59.50
2018-12-06T16:54:33.784Z,59.50
2018-12-06T16:57:02.544Z,59.50
2018-12-06T16:59:31.179Z,59.50
2018-12-06T17:01:59.803Z,60.10
2018-12-06T17:04:28.455Z,59.50
2018-12-06T17:06:57.089Z,59.50
2018-12-06T17:09:25.774Z,59.50
2018-12-06T17:11:54.411Z,59.50
2018-12-06T17:14:23.028Z,59.60
2018-12-06T17:16:52.339Z,59.60
2018-12-06T17:19:20.961Z,59.60
2018-12-06T17:21:49.611Z,59.60
2018-12-06T17:24:18.275Z,59.60
2018-12-06T17:26:46.887Z,59.60
2018-12-06T17:29:15.516Z,59.60
2018-12-06T17:31:44.279Z,59.60
2018-12-06T17:34:12.902Z,59.60
2018-12-06T17:36:41.563Z,59.60
2018-12-06T17:39:10.185Z,59.60
2018-12-06T17:41:38.831Z,59.60
2018-12-06T17:44:07.478Z,59.60
2018-12-06T17:46:36.092Z,59.60
2018-12-06T17:49:04.739Z,59.60
2018-12-06T17:51:33.701Z,59.60
2018-12-06T17:54:02.324Z,59.60
2018-12-06T17:56:31.091Z,59.70
2018-12-06T17:58:59.708Z,59.60
2018-12-06T18:01:28.475Z,59.60
2018-12-06T18:03:57.194Z,59.60
2018-12-06T18:06:25.824Z,59.60
2018-12-06T18:08:54.466Z,59.60
2018-12-06T18:11:23.107Z,59.70
2018-12-06T18:13:51.755Z,59.60
2018-12-06T18:16:20.403Z,59.70
2018-12-06T18:18:49.030Z,59.70
2018-12-06T18:21:17.687Z,59.70
2018-12-06T18:23:46.318Z,59.70
2018-12-06T18:26:14.967Z,59.70
2018-12-06T18:28:43.580Z,59.70
2018-12-06T18:31:12.347Z,59.70
2018-12-06T18:33:41.863Z,59.70
2018-12-06T18:36:10.484Z,59.70
2018-12-06T18:38:39.176Z,59.70
2018-12-06T18:41:07.935Z,59.70
2018-12-06T18:43:36.592Z,59.70
2018-12-06T18:46:05.215Z,59.70
2018-12-06T18:48:33.847Z,59.70
2018-12-06T18:51:02.501Z,59.70
2018-12-06T18:53:31.481Z,59.70
2018-12-06T18:56:00.459Z,59.80
2018-12-06T18:58:34.404Z,59.70
2018-12-06T19:00:59.745Z,59.70
2018-12-06T19:03:28.364Z,59.70
2018-12-06T19:05:56.994Z,59.70
2018-12-06T19:08:25.639Z,59.70
2018-12-06T19:10:54.263Z,59.70
2018-12-06T19:13:22.913Z,59.80
2018-12-06T19:15:51.674Z,59.70
2018-12-06T19:18:20.315Z,59.70
2018-12-06T19:20:48.926Z,59.90
2018-12-06T19:23:17.535Z,59.80
2018-12-06T19:25:46.194Z,59.80
2018-12-06T19:28:19.337Z,59.80
2018-12-06T19:30:47.952Z,59.70
2018-12-06T19:33:23.383Z,59.80
2018-12-06T19:35:52.020Z,59.70
2018-12-06T19:38:20.646Z,59.80
2018-12-06T19:40:49.299Z,59.80
2018-12-06T19:43:17.899Z,59.80
2018-12-06T19:45:46.539Z,59.80
2018-12-06T19:48:15.152Z,59.70
2018-12-06T19:50:43.801Z,59.70
2018-12-06T19:53:12.536Z,59.70
2018-12-06T19:55:41.182Z,59.80
2018-12-06T19:58:09.819Z,59.80
2018-12-06T20:00:38.505Z,59.80
2018-12-06T20:03:07.123Z,59.80
2018-12-06T20:05:35.747Z,59.70
2018-12-06T20:08:04.431Z,59.70
2018-12-06T20:10:33.043Z,59.70
2018-12-06T20:13:01.618Z,59.80
2018-12-06T20:15:30.290Z,59.70
2018-12-06T20:17:58.864Z,59.80
2018-12-06T20:20:27.515Z,59.70
2018-12-06T20:22:56.123Z,59.80
2018-12-06T20:25:24.759Z,60.40
2018-12-06T20:27:53.413Z,59.80
2018-12-06T20:30:22.035Z,59.80
2018-12-06T20:32:50.691Z,59.80
2018-12-06T20:35:19.312Z,59.80
2018-12-06T20:37:47.956Z,59.70
2018-12-06T20:40:16.640Z,59.70
2018-12-06T20:42:45.255Z,59.80
2018-12-06T20:45:13.898Z,59.80
2018-12-06T20:47:42.523Z,59.80
2018-12-06T20:50:11.132Z,59.70
2018-12-06T20:52:39.726Z,59.80
2018-12-06T20:55:08.396Z,59.80
2018-12-06T20:57:37.684Z,59.80
2018-12-06T21:00:06.749Z,59.80
2018-12-06T21:02:35.389Z,59.80
2018-12-06T21:05:04.291Z,59.80
2018-12-06T21:07:32.924Z,59.80
2018-12-06T21:10:01.547Z,59.90
2018-12-06T21:12:30.173Z,59.90
2018-12-06T21:14:58.788Z,59.90
2018-12-06T21:17:27.431Z,59.90
2018-12-06T21:19:56.047Z,59.90
2018-12-06T21:22:24.699Z,59.90
2018-12-06T21:24:53.385Z,59.90
2018-12-06T21:27:22.027Z,59.90
2018-12-06T21:29:50.643Z,59.90
2018-12-06T21:32:19.274Z,60.70
2018-12-06T21:34:48.030Z,60.00
2018-12-06T21:37:16.650Z,60.00
2018-12-06T21:39:45.297Z,60.00
2018-12-06T21:42:13.908Z,60.00
2018-12-06T21:44:42.511Z,60.00
2018-12-06T21:47:15.335Z,60.00
2018-12-06T21:49:43.914Z,60.00
2018-12-06T21:52:12.575Z,60.00
2018-12-06T21:54:41.187Z,60.00
2018-12-06T21:57:09.755Z,60.00
2018-12-06T21:59:38.385Z,60.00
2018-12-06T22:02:18.027Z,60.00
2018-12-06T22:04:46.642Z,60.00
2018-12-06T22:07:15.262Z,60.00
2018-12-06T22:09:43.938Z,60.00
2018-12-06T22:12:12.589Z,60.10
2018-12-06T22:14:41.210Z,60.10
2018-12-06T22:17:09.842Z,60.10
2018-12-06T22:19:38.487Z,60.10
2018-12-06T22:22:07.106Z,60.10
2018-12-06T22:24:35.734Z,60.10
2018-12-06T22:27:04.399Z,60.10
2018-12-06T22:29:33.047Z,60.10
2018-12-06T22:32:01.707Z,60.10
2018-12-06T22:34:30.302Z,60.10
2018-12-06T22:36:58.939Z,60.10
2018-12-06T22:39:27.885Z,60.10
2018-12-06T22:41:56.542Z,60.10
2018-12-06T22:44:25.151Z,60.10
2018-12-06T22:46:53.780Z,60.10
2018-12-06T22:49:22.523Z,60.10
2018-12-06T22:51:51.135Z,60.10
2018-12-06T22:54:19.766Z,60.10
2018-12-06T22:56:48.422Z,60.10
2018-12-06T22:59:17.121Z,60.10
2018-12-06T23:01:46.038Z,60.10
2018-12-06T23:04:14.811Z,60.10
2018-12-06T23:06:43.462Z,60.10
2018-12-06T23:09:12.086Z,60.00
2018-12-06T23:11:40.727Z,60.10
2018-12-06T23:14:09.481Z,60.10
2018-12-06T23:16:38.102Z,60.00
2018-12-06T23:19:06.726Z,60.00
2018-12-06T23:21:35.354Z,60.00
2018-12-06T23:24:04.045Z,60.00
2018-12-06T23:26:33.114Z,60.00
2018-12-06T23:29:01.823Z,60.00
2018-12-06T23:31:30.443Z,60.00
2018-12-06T23:33:59.067Z,60.00
2018-12-06T23:36:27.700Z,60.10
2018-12-06T23:38:56.339Z,60.00
2018-12-06T23:41:24.998Z,60.00
2018-12-06T23:43:53.612Z,60.00
2018-12-06T23:46:22.260Z,60.10
2018-12-06T23:48:50.863Z,60.10
2018-12-06T23:51:36.109Z,60.10
2018-12-06T23:54:04.758Z,60.10
2018-12-06T23:56:33.369Z,60.80
2018-12-06T23:59:02.219Z,60.10
